createdAt,value
2023-12-13T00:04:40.197Z,3.51
2023-12-13T00:34:43.618Z,3.37
2023-12-13T01:04:47.090Z,3.46
2023-12-13T01:34:50.047Z,3.36
2023-12-13T02:04:54.041Z,3.26
2023-12-13T02:34:57.069Z,3.13
2023-12-13T03:05:01.255Z,3.00
2023-12-13T03:35:04.161Z,2.90
2023-12-13T04:05:08.019Z,2.74
2023-12-13T04:35:10.894Z,2.76
2023-12-13T05:05:14.445Z,2.85
2023-12-13T05:35:17.381Z,2.90
2023-12-13T06:05:21.020Z,2.93
2023-12-13T06:35:23.942Z,2.99
2023-12-13T07:05:27.885Z,3.16
2023-12-13T07:35:31.437Z,3.25
2023-12-13T08:05:34.554Z,3.32
2023-12-13T08:35:37.415Z,3.36
2023-12-13T09:05:40.692Z,3.41
2023-12-13T09:36:07.567Z,3.49
2023-12-13T10:06:10.672Z,3.53
2023-12-13T10:36:13.574Z,3.60
2023-12-13T11:06:17.220Z,3.70
2023-12-13T11:36:20.828Z,3.66
2023-12-13T12:06:24.222Z,3.69
2023-12-13T12:36:27.069Z,3.61
2023-12-13T13:06:31.004Z,3.72
2023-12-13T13:36:33.928Z,3.80
2023-12-13T14:06:37.551Z,3.80
2023-12-13T14:36:41.046Z,3.68
2023-12-13T15:06:44.051Z,3.66
2023-12-13T15:36:48.388Z,3.62
2023-12-13T16:06:52.837Z,3.59
2023-12-13T16:36:55.695Z,3.48
2023-12-13T17:06:59.771Z,3.39
2023-12-13T17:37:02.691Z,3.36
2023-12-13T18:07:06.264Z,3.29
2023-12-13T18:37:09.412Z,3.21
2023-12-13T19:07:12.787Z,3.15
2023-12-13T19:37:15.754Z,3.05
2023-12-13T20:07:19.172Z,3.05
2023-12-13T20:37:22.161Z,2.99
2023-12-13T21:07:25.738Z,3.01
2023-12-13T21:37:29.182Z,2.96
2023-12-13T22:07:32.634Z,2.83
2023-12-13T22:37:35.710Z,2.81
2023-12-13T23:07:39.462Z,2.73
2023-12-13T23:37:42.449Z,2.56
